Skamania, Washington
Current Conditions -  °F | °C
As of 1:39 PM on Wednesday 28 Jan 2015 (Local Time) from K4S2 Reporting Station
Clear Clear  
Wind Chill: 55°   Ceiling: Unl
Heat Index: 55°   Visibility: 10mi
Dew Point: 46°   Wind: 0mph
Humidity: 72%   Direction: NA
Pressure: 30.34"   Gusts: NA
Location:  46.0755°N, 121.895°W
Report Text: K4S2 282139Z AUTO 00000KT 10SM CLR 13/08 A3034 RMK AO2 SLP290 T01300080
Loading
Personal Weather Stations






























Interactive Weather Map New forecast layout! Learn more

10-Day Weather Forecast

Advertisements
Track Severe Weather on mobile